地図

経路データ

SID SEASON NUMBER BASIN SUBBASIN NAME ISO_TIME NATURE LAT LON WMO_WIND WMO_PRES WMO_AGENCY TRACK_TYPE DIST2LAND LANDFALL IFLAG USA_AGENCY USA_ATCF_ID USA_LAT USA_LON USA_RECORD USA_STATUS USA_WIND USA_PRES USA_SSHS USA_R34_NE USA_R34_SE USA_R34_SW USA_R34_NW USA_R50_NE USA_R50_SE USA_R50_SW USA_R50_NW USA_R64_NE USA_R64_SE USA_R64_SW USA_R64_NW USA_POCI USA_ROCI USA_RMW USA_EYE TOKYO_LAT TOKYO_LON TOKYO_GRADE TOKYO_WIND TOKYO_PRES TOKYO_R50_DIR TOKYO_R50_LONG TOKYO_R50_SHORT TOKYO_R30_DIR TOKYO_R30_LONG TOKYO_R30_SHORT TOKYO_LAND CMA_LAT CMA_LON CMA_CAT CMA_WIND CMA_PRES HKO_LAT HKO_LON HKO_CAT HKO_WIND HKO_PRES NEWDELHI_LAT NEWDELHI_LON NEWDELHI_GRADE NEWDELHI_WIND NEWDELHI_PRES NEWDELHI_CI NEWDELHI_DP NEWDELHI_POCI REUNION_LAT REUNION_LON REUNION_TYPE REUNION_WIND REUNION_PRES REUNION_TNUM REUNION_CI REUNION_RMW REUNION_R34_NE REUNION_R34_SE REUNION_R34_SW REUNION_R34_NW REUNION_R50_NE REUNION_R50_SE REUNION_R50_SW REUNION_R50_NW REUNION_R64_NE REUNION_R64_SE REUNION_R64_SW REUNION_R64_NW BOM_LAT BOM_LON BOM_TYPE BOM_WIND BOM_PRES BOM_TNUM BOM_CI BOM_RMW BOM_R34_NE BOM_R34_SE BOM_R34_SW BOM_R34_NW BOM_R50_NE BOM_R50_SE BOM_R50_SW BOM_R50_NW BOM_R64_NE BOM_R64_SE BOM_R64_SW BOM_R64_NW BOM_ROCI BOM_POCI BOM_EYE BOM_POS_METHOD BOM_PRES_METHOD NADI_LAT NADI_LON NADI_CAT NADI_WIND NADI_PRES WELLINGTON_LAT WELLINGTON_LON WELLINGTON_WIND WELLINGTON_PRES DS824_LAT DS824_LON DS824_STAGE DS824_WIND DS824_PRES TD9636_LAT TD9636_LON TD9636_STAGE TD9636_WIND TD9636_PRES TD9635_LAT TD9635_LON TD9635_WIND TD9635_PRES TD9635_ROCI NEUMANN_LAT NEUMANN_LON NEUMANN_CLASS NEUMANN_WIND NEUMANN_PRES MLC_LAT MLC_LON MLC_CLASS MLC_WIND MLC_PRES USA_GUST BOM_GUST BOM_GUST_PER REUNION_GUST REUNION_GUST_PER USA_SEAHGT USA_SEARAD_NE USA_SEARAD_SE USA_SEARAD_SW USA_SEARAD_NW STORM_SPEED STORM_DIR
1958217N28142 1958 62 WP MM NOT_NAMED 1958-08-05 06:00:00 TS 28.1000 142.200 main 789 789 __O___________ -1 28.1000 142.200 0 1006 10 217
1958217N28142 1958 62 WP MM NOT_NAMED 1958-08-05 09:00:00 TS 27.7199 141.876 main 824 820 __P___________ -1 27.7199 141.876 0 1006 9 226
1958217N28142 1958 62 WP MM NOT_NAMED 1958-08-05 12:00:00 TS 27.5000 141.500 main 832 821 __O___________ -1 27.5000 141.500 0 1006 7 257
1958217N28142 1958 62 WP MM NOT_NAMED 1958-08-05 15:00:00 TS 27.5527 141.068 main 810 781 __P___________ -1 27.5527 141.068 0 1006 7 296
1958217N28142 1958 62 WP MM NOT_NAMED 1958-08-05 18:00:00 TS 27.8000 140.800 main 781 741 __O___________ -1 27.8000 140.800 0 1006 7 345
1958217N28142 1958 62 WP MM NOT_NAMED 1958-08-05 21:00:00 TS 28.1797 140.872 main 741 714 __P___________ -1 28.1797 140.872 0 1006 8 27
1958217N28142 1958 62 WP MM NOT_NAMED 1958-08-06 00:00:00 TS 28.5000 141.200 main 717 717 __O___________ -1 28.5000 141.200 0 1006 8 64
1958217N28142 1958 62 WP MM NOT_NAMED 1958-08-06 03:00:00 TS 28.5102 141.656 main 733 733 __P___________ -1 28.5102 141.656 0 1005 9 96
1958217N28142 1958 62 WP MM NOT_NAMED 1958-08-06 06:00:00 TS 28.4000 142.200 main 756 756 __O___________ -1 28.4000 142.200 0 1004 9 101
1958217N28142 1958 62 WP MM NOT_NAMED 1958-08-06 09:00:00 TS 28.3348 142.700 main 782 782 __P___________ -1 28.3348 142.700 0 1004 9 96
1958217N28142 1958 62 WP MM NOT_NAMED 1958-08-06 12:00:00 TS 28.3000 143.200 main 799 799 __O___________ -1 28.3000 143.200 0 1004 9 90
1958217N28142 1958 62 WP MM NOT_NAMED 1958-08-06 15:00:00 TS 28.3349 143.707 main 819 813 __P___________ -1 28.3349 143.707 0 1004 9 84
1958217N28142 1958 62 WP MM NOT_NAMED 1958-08-06 18:00:00 TS 28.4000 144.200 main 830 830 __O___________ -1 28.4000 144.200 0 1004 8 83
1958217N28142 1958 62 WP MM NOT_NAMED 1958-08-06 21:00:00 TS 28.4345 144.635 main 850 850 __P___________ -1 28.4345 144.635 0 1004 8 83
1958217N28142 1958 62 WP MM NOT_NAMED 1958-08-07 00:00:00 TS 28.5000 145.100 main 866 866 __O___________ -1 28.5000 145.100 0 1004 9 78
1958217N28142 1958 62 WP MM NOT_NAMED 1958-08-07 03:00:00 TS 28.6199 145.670 main 889 885 __P___________ -1 28.6199 145.670 0 1004 11 74
1958217N28142 1958 62 WP MM NOT_NAMED 1958-08-07 06:00:00 TS 28.8000 146.300 main 904 904 __O___________ -1 28.8000 146.300 0 1004 12 70
1958217N28142 1958 62 WP MM NOT_NAMED 1958-08-07 09:00:00 TS 29.0198 146.943 main 922 922 __P___________ -1 29.0198 146.943 0 1003 12 66
1958217N28142 1958 62 WP MM NOT_NAMED 1958-08-07 12:00:00 TS 29.3000 147.600 main 942 941 __O___________ -1 29.3000 147.600 1 23 1002 13 62
1958217N28142 1958 62 WP MM NOT_NAMED 1958-08-07 15:00:00 TS 29.6198 148.258 main 967 960 __P___________ -1 29.6198 148.258 1 23 1002 13 58
1958217N28142 1958 62 WP MM NOT_NAMED 1958-08-07 18:00:00 TS 30.0000 148.900 main 979 978 __O___________ -1 30.0000 148.900 1 23 1002 14 53
1958217N28142 1958 62 WP MM NOT_NAMED 1958-08-07 21:00:00 TS 30.4346 149.508 main 993 986 __P___________ -1 30.4346 149.508 1 1003 14 49
1958217N28142 1958 62 WP MM NOT_NAMED 1958-08-08 00:00:00 TS 30.9000 150.100 main 1006 1006 __O___________ -1 30.9000 150.100 0 1004 14 49
1958217N28142 1958 62 WP MM NOT_NAMED 1958-08-08 03:00:00 TS 31.3272 150.701 main 1030 1024 __P___________ -1 31.3272 150.701 0 1004 14 49
1958217N28142 1958 62 WP MM NOT_NAMED 1958-08-08 06:00:00 TS 31.8000 151.300 main 1052 1052 __O___________ -1 31.8000 151.300 0 1004 14 44
1958217N28142 1958 62 WP MM NOT_NAMED 1958-08-08 09:00:00 TS 32.3544 151.879 main 1075 1075 __P___________ -1 32.3544 151.879 0 1005 16 40
1958217N28142 1958 62 WP MM NOT_NAMED 1958-08-08 12:00:00 TS 33.0000 152.500 main 1103 1103 __O___________ -1 33.0000 152.500 0 1006 18 39
1958217N28142 1958 62 WP MM NOT_NAMED 1958-08-08 15:00:00 TS 33.7267 153.191 main 1143 1140 __P___________ -1 33.7267 153.191 0 1006 20 40
1958217N28142 1958 62 WP MM NOT_NAMED 1958-08-08 18:00:00 TS 34.5000 154.000 main 1190 1190 __O___________ -1 34.5000 154.000 0 1006 21 44
1958217N28142 1958 62 WP MM NOT_NAMED 1958-08-08 21:00:00 TS 35.2659 154.999 main 1197 1190 __P___________ -1 35.2659 154.999 0 1007 22 47
1958217N28142 1958 62 WP MM NOT_NAMED 1958-08-09 00:00:00 TS 36.0000 156.000 main 1190 1154 __O___________ -1 36.0000 156.000 0 1008 20 45
1958217N28142 1958 62 WP MM NOT_NAMED 1958-08-09 03:00:00 TS 36.6704 156.753 main 1152 1126 __P___________ -1 36.6704 156.753 0 1008 18 43
1958217N28142 1958 62 WP MM NOT_NAMED 1958-08-09 06:00:00 TS 37.3000 157.500 main 1126 1111 __O___________ -1 37.3000 157.500 0 1008 19 47
1958217N28142 1958 62 WP MM NOT_NAMED 1958-08-09 09:00:00 TS 37.9373 158.455 main 1122 1113 __P___________ -1 37.9373 158.455 0 1009 20 53
1958217N28142 1958 62 WP MM NOT_NAMED 1958-08-09 12:00:00 TS 38.5000 159.500 main 1123 1120 __O___________ -1 38.5000 159.500 0 1010 19 58
1958217N28142 1958 62 WP MM NOT_NAMED 1958-08-09 15:00:00 TS 38.9521 160.559 main 1144 1144 __P___________ -1 38.9521 160.559 0 1010 18 64
1958217N28142 1958 62 WP MM NOT_NAMED 1958-08-09 18:00:00 TS 39.3000 161.600 main 1182 1182 __O___________ -1 39.3000 161.600 0 1010 16 68
1958217N28142 1958 62 WP MM NOT_NAMED 1958-08-09 21:00:00 TS 39.5631 162.538 main 1217 1217 __P___________ -1 39.5631 162.538 0 1010 15 71
1958217N28142 1958 62 WP MM NOT_NAMED 1958-08-10 00:00:00 TS 39.8000 163.500 main 1270 1270 __O___________ -1 39.8000 163.500 0 1010 17 72
1958217N28142 1958 62 WP MM NOT_NAMED 1958-08-10 03:00:00 TS 40.0934 164.665 main 1314 1312 __P___________ -1 40.0934 164.665 0 1010 19 71
1958217N28142 1958 62 WP MM NOT_NAMED 1958-08-10 06:00:00 TS 40.4000 165.800 main 1331 1331 __O___________ -1 40.4000 165.800 0 1010 17 69
1958217N28142 1958 62 WP MM NOT_NAMED 1958-08-10 09:00:00 TS 40.7023 166.719 main 1345 1345 __P___________ -1 40.7023 166.719 0 1011 14 65
1958217N28142 1958 62 WP MM NOT_NAMED 1958-08-10 12:00:00 TS 41.0000 167.500 main 1358 __O___________ -1 41.0000 167.500 0 1012 13 63

デジタル台風データ・検索

IBTrACS Databaseについて

本データベースは、米国NOAAが公開する1842年以降の世界の熱帯低気圧のベストトラックデータアーカイブInternational Best Track Archive for Climate Stewardship (IBTrACS)を、ウェブで閲覧しやすい形式に変換したものです。

最終更新日:2021-10-21